createdAt,value
2023-03-29T00:02:11.258Z,15.09
2023-03-29T00:04:39.045Z,15.30
2023-03-29T00:07:05.954Z,14.58
2023-03-29T00:09:33.299Z,14.86
2023-03-29T00:12:01.748Z,14.95
2023-03-29T00:14:30.811Z,14.58
2023-03-29T00:16:58.537Z,15.10
2023-03-29T00:19:25.224Z,14.91
2023-03-29T00:21:52.009Z,14.87
2023-03-29T00:24:18.621Z,14.97
2023-03-29T00:26:45.507Z,14.95
2023-03-29T00:29:12.535Z,14.80
2023-03-29T00:31:39.620Z,14.54
2023-03-29T00:34:06.402Z,14.85
2023-03-29T00:36:33.077Z,14.71
2023-03-29T00:38:59.916Z,14.97
2023-03-29T00:41:27.442Z,15.14
2023-03-29T00:44:02.805Z,14.82
2023-03-29T00:46:30.947Z,15.24
2023-03-29T00:49:04.587Z,15.37
2023-03-29T00:51:35.710Z,15.27
2023-03-29T00:54:05.983Z,14.50
2023-03-29T00:56:39.821Z,14.10
2023-03-29T00:59:12.292Z,14.86
2023-03-29T01:01:44.952Z,15.40
2023-03-29T01:04:20.778Z,14.87
2023-03-29T01:07:13.608Z,15.30
2023-03-29T01:09:44.510Z,15.14
2023-03-29T01:12:17.143Z,15.18
2023-03-29T01:15:04.316Z,15.61
2023-03-29T01:17:31.896Z,15.48
2023-03-29T01:20:22.222Z,15.41
2023-03-29T01:23:27.310Z,15.43
2023-03-29T01:26:25.004Z,15.57
2023-03-29T01:28:55.062Z,15.64
2023-03-29T01:31:30.061Z,15.96
2023-03-29T01:34:32.512Z,16.03
2023-03-29T01:37:08.678Z,16.30
2023-03-29T01:39:35.817Z,16.26
2023-03-29T01:42:21.508Z,16.11
2023-03-29T01:45:06.710Z,15.90
2023-03-29T01:47:48.594Z,15.62
2023-03-29T01:50:25.610Z,15.59
2023-03-29T01:53:07.558Z,15.50
2023-03-29T01:55:39.300Z,15.55
2023-03-29T01:58:10.231Z,15.16
2023-03-29T02:00:39.991Z,15.57
2023-03-29T02:03:10.123Z,15.56
2023-03-29T02:05:39.465Z,15.64
2023-03-29T02:08:08.779Z,15.77
2023-03-29T02:10:36.834Z,16.19
2023-03-29T02:13:04.672Z,16.03
2023-03-29T02:15:33.223Z,16.16
2023-03-29T02:17:59.992Z,16.21
2023-03-29T02:20:32.220Z,16.01
2023-03-29T02:23:06.417Z,15.97
2023-03-29T02:25:33.588Z,16.14
2023-03-29T02:28:01.209Z,16.06
2023-03-29T02:30:49.673Z,16.29
2023-03-29T02:33:24.074Z,16.56
2023-03-29T02:36:03.282Z,16.64
2023-03-29T02:38:32.836Z,16.62
2023-03-29T02:41:00.572Z,16.31
2023-03-29T02:43:29.934Z,16.38
2023-03-29T02:45:56.993Z,16.54
2023-03-29T02:48:27.131Z,16.46
2023-03-29T02:50:58.038Z,16.63
2023-03-29T02:53:30.696Z,16.25
2023-03-29T02:55:57.811Z,16.40
2023-03-29T02:58:26.653Z,16.47
2023-03-29T03:00:53.858Z,16.52
2023-03-29T03:03:21.061Z,16.44
2023-03-29T03:05:49.371Z,16.31
2023-03-29T03:08:16.461Z,15.55
2023-03-29T03:10:43.147Z,15.65
2023-03-29T03:13:10.006Z,15.91
2023-03-29T03:15:37.246Z,15.94
2023-03-29T03:18:04.813Z,15.68
2023-03-29T03:20:32.386Z,16.04
2023-03-29T03:23:01.094Z,15.79
2023-03-29T03:25:28.723Z,16.18
2023-03-29T03:27:55.661Z,15.98
2023-03-29T03:30:24.465Z,16.20
2023-03-29T03:33:10.094Z,15.98
2023-03-29T03:35:42.867Z,16.22
2023-03-29T03:38:12.342Z,15.77
2023-03-29T03:40:40.181Z,15.90
2023-03-29T03:43:07.132Z,16.28
2023-03-29T03:45:34.542Z,16.10
2023-03-29T03:48:11.651Z,15.70
2023-03-29T03:50:51.258Z,16.18
2023-03-29T03:53:19.257Z,16.19
2023-03-29T03:56:09.089Z,15.87
2023-03-29T03:58:47.568Z,16.09
2023-03-29T04:01:17.371Z,16.07
2023-03-29T04:03:54.162Z,15.70
2023-03-29T04:06:22.648Z,15.76
2023-03-29T04:09:23.394Z,16.10
2023-03-29T04:12:02.545Z,16.09
2023-03-29T04:14:32.223Z,16.26
2023-03-29T04:17:06.848Z,16.60
2023-03-29T04:20:12.385Z,16.90
2023-03-29T04:22:41.178Z,16.51
2023-03-29T04:25:08.710Z,16.31
2023-03-29T04:27:47.955Z,16.73
2023-03-29T04:30:29.228Z,16.86
2023-03-29T04:33:08.860Z,16.36
2023-03-29T04:35:37.131Z,16.05
2023-03-29T04:38:10.493Z,16.44
2023-03-29T04:40:38.608Z,16.22
2023-03-29T04:43:12.242Z,16.15
2023-03-29T04:45:46.300Z,16.49
2023-03-29T04:48:25.790Z,16.64
2023-03-29T04:50:54.483Z,16.03
2023-03-29T04:53:22.732Z,16.20
2023-03-29T04:55:50.508Z,16.26
2023-03-29T04:58:32.523Z,16.34
2023-03-29T05:01:00.965Z,16.87
2023-03-29T05:03:38.162Z,16.96
2023-03-29T05:06:14.152Z,15.89
2023-03-29T05:08:41.285Z,16.39
2023-03-29T05:11:25.180Z,16.25
2023-03-29T05:13:52.492Z,16.34
2023-03-29T05:16:19.354Z,17.01
2023-03-29T05:18:46.816Z,17.17
2023-03-29T05:21:14.172Z,16.94
2023-03-29T05:23:47.067Z,17.12
2023-03-29T05:26:16.248Z,16.88
2023-03-29T05:28:51.515Z,16.90
2023-03-29T05:31:18.791Z,17.31
2023-03-29T05:33:50.376Z,17.54
2023-03-29T05:36:19.318Z,17.88
2023-03-29T05:38:49.920Z,17.51
2023-03-29T05:41:18.619Z,17.46
2023-03-29T05:44:14.208Z,17.18
2023-03-29T05:46:43.071Z,17.49
2023-03-29T05:49:14.574Z,17.65
2023-03-29T05:52:02.465Z,17.42
2023-03-29T05:54:31.218Z,17.45
2023-03-29T05:56:58.428Z,17.64
2023-03-29T05:59:28.328Z,17.84
2023-03-29T06:01:54.983Z,17.21
2023-03-29T06:04:21.977Z,17.90
2023-03-29T06:07:02.009Z,18.35
2023-03-29T06:09:29.146Z,18.23
2023-03-29T06:12:01.838Z,18.05
2023-03-29T06:14:34.618Z,18.29
2023-03-29T06:17:13.779Z,17.79
2023-03-29T06:19:40.687Z,18.17
2023-03-29T06:22:07.531Z,17.96
2023-03-29T06:24:34.807Z,18.21
2023-03-29T06:27:08.218Z,18.65
2023-03-29T06:29:36.318Z,19.01
2023-03-29T06:32:03.338Z,19.43
2023-03-29T06:34:46.162Z,19.15
2023-03-29T06:37:34.479Z,19.26
2023-03-29T06:40:11.633Z,18.90
2023-03-29T06:42:42.926Z,19.43
2023-03-29T06:45:31.036Z,19.01
2023-03-29T06:48:00.585Z,19.71
2023-03-29T06:50:27.512Z,20.00
2023-03-29T06:53:04.712Z,18.98
2023-03-29T06:55:32.166Z,19.50
2023-03-29T06:58:09.304Z,19.20
2023-03-29T07:00:38.990Z,19.07
2023-03-29T07:03:15.017Z,19.56
2023-03-29T07:05:42.078Z,19.59
2023-03-29T07:08:15.609Z,19.68
2023-03-29T07:11:03.731Z,20.10
2023-03-29T07:13:49.285Z,19.59
2023-03-29T07:16:19.592Z,19.90
2023-03-29T07:19:09.469Z,19.30
2023-03-29T07:22:07.414Z,19.25
2023-03-29T07:24:44.507Z,19.79
2023-03-29T07:27:12.305Z,19.18
2023-03-29T07:29:39.275Z,19.00
2023-03-29T07:32:06.536Z,19.52
2023-03-29T07:34:42.182Z,19.15
2023-03-29T07:37:13.837Z,19.63
2023-03-29T07:39:42.592Z,20.05
2023-03-29T07:42:28.259Z,20.33
2023-03-29T07:44:56.234Z,20.22
2023-03-29T07:47:23.609Z,20.70
2023-03-29T07:49:50.486Z,20.90
2023-03-29T07:52:18.100Z,20.97
2023-03-29T07:54:45.323Z,20.74
2023-03-29T07:57:26.549Z,20.91
2023-03-29T07:59:55.442Z,20.93
2023-03-29T08:02:27.337Z,20.67
2023-03-29T08:04:57.721Z,20.77
2023-03-29T08:07:31.312Z,21.33
2023-03-29T08:10:19.520Z,20.66
2023-03-29T08:13:24.876Z,20.63
2023-03-29T08:16:12.138Z,20.33
2023-03-29T08:18:45.187Z,21.09
2023-03-29T08:21:14.739Z,21.32
2023-03-29T08:23:45.009Z,21.43
2023-03-29T08:26:19.650Z,21.78
2023-03-29T08:28:47.670Z,22.22
2023-03-29T08:31:16.582Z,22.21
2023-03-29T08:33:44.844Z,21.59
2023-03-29T08:36:37.807Z,21.46
2023-03-29T08:39:11.586Z,21.98
2023-03-29T08:42:03.907Z,22.03
2023-03-29T08:44:59.286Z,21.92
2023-03-29T08:48:04.019Z,21.77
2023-03-29T08:50:40.550Z,21.90
2023-03-29T08:53:12.865Z,21.78
2023-03-29T08:56:06.874Z,22.10
2023-03-29T08:58:56.318Z,21.24
2023-03-29T09:01:30.692Z,21.49
2023-03-29T09:04:04.893Z,21.43
2023-03-29T09:06:47.554Z,22.02
2023-03-29T09:09:23.584Z,21.62
2023-03-29T09:12:33.639Z,20.78
2023-03-29T09:15:15.559Z,20.50
2023-03-29T09:18:21.872Z,20.50
2023-03-29T09:21:20.463Z,20.84
2023-03-29T09:24:02.948Z,20.90
2023-03-29T09:27:32.344Z,20.44
2023-03-29T09:30:27.990Z,20.54
2023-03-29T09:33:12.770Z,19.87
2023-03-29T09:36:22.934Z,20.76
2023-03-29T09:38:54.399Z,21.04
2023-03-29T09:41:35.844Z,20.91
2023-03-29T09:44:20.553Z,20.88
2023-03-29T09:47:01.934Z,21.95
2023-03-29T09:49:36.367Z,22.19
2023-03-29T09:52:10.797Z,22.20
2023-03-29T09:54:38.205Z,21.93
2023-03-29T09:57:36.489Z,21.81
2023-03-29T10:00:06.595Z,22.69
2023-03-29T10:02:57.126Z,22.38
2023-03-29T10:05:40.132Z,22.40
2023-03-29T10:08:36.621Z,21.85
2023-03-29T10:11:12.413Z,22.11
2023-03-29T10:13:47.199Z,22.18
2023-03-29T10:16:22.446Z,21.78
2023-03-29T10:18:50.294Z,22.10
2023-03-29T10:21:22.356Z,22.44
2023-03-29T10:23:50.208Z,23.13
2023-03-29T10:26:31.817Z,23.82
2023-03-29T10:29:01.525Z,24.64
2023-03-29T10:31:31.497Z,24.50
2023-03-29T10:34:02.767Z,25.03
2023-03-29T10:36:30.071Z,23.40
2023-03-29T10:39:05.904Z,22.72
2023-03-29T10:41:35.613Z,22.04
2023-03-29T10:44:03.669Z,22.82
2023-03-29T10:46:41.999Z,22.99
2023-03-29T10:49:20.332Z,23.41
2023-03-29T10:51:51.931Z,22.82
2023-03-29T10:54:22.557Z,22.51
2023-03-29T10:56:53.708Z,22.88
2023-03-29T10:59:47.776Z,23.72
2023-03-29T11:02:47.277Z,24.02
2023-03-29T11:05:24.905Z,23.59
2023-03-29T11:08:10.293Z,23.77
2023-03-29T11:10:58.847Z,23.31
2023-03-29T11:13:59.940Z,23.34
2023-03-29T11:16:53.645Z,23.56
2023-03-29T11:19:38.321Z,23.37
2023-03-29T11:22:11.398Z,24.14
2023-03-29T11:24:41.451Z,24.23
2023-03-29T11:27:43.059Z,24.21
2023-03-29T11:30:30.609Z,24.22
2023-03-29T11:33:25.520Z,24.17
2023-03-29T11:36:16.849Z,24.79
2023-03-29T11:38:55.692Z,24.66
2023-03-29T11:41:32.196Z,23.97
2023-03-29T11:44:03.081Z,23.68
2023-03-29T11:46:38.627Z,23.86
2023-03-29T11:49:13.952Z,23.08
2023-03-29T11:51:46.120Z,23.36
2023-03-29T11:54:31.207Z,23.16
2023-03-29T11:57:13.165Z,23.26
2023-03-29T11:59:49.973Z,23.50
2023-03-29T12:02:39.958Z,23.47
2023-03-29T12:05:15.974Z,23.14
2023-03-29T12:07:49.893Z,23.70
2023-03-29T12:10:23.608Z,24.28
2023-03-29T12:12:56.430Z,24.28
2023-03-29T12:15:26.300Z,24.88
2023-03-29T12:18:06.336Z,24.62
2023-03-29T12:20:38.985Z,24.25
2023-03-29T12:23:10.904Z,24.58
2023-03-29T12:25:49.484Z,24.20
2023-03-29T12:28:23.471Z,23.61
2023-03-29T12:31:00.648Z,24.09
2023-03-29T12:34:03.337Z,24.97
2023-03-29T12:37:13.368Z,25.71
2023-03-29T12:39:46.962Z,24.85
2023-03-29T12:42:44.563Z,24.42
2023-03-29T12:45:49.330Z,24.33
2023-03-29T12:48:20.262Z,24.51
2023-03-29T12:50:57.270Z,25.13
2023-03-29T12:53:27.045Z,25.25
2023-03-29T12:56:01.059Z,25.37
2023-03-29T12:58:40.234Z,25.13
2023-03-29T13:01:10.916Z,25.66
2023-03-29T13:03:40.840Z,25.49
2023-03-29T13:06:10.066Z,25.39
2023-03-29T13:08:41.059Z,25.23
2023-03-29T13:11:13.511Z,25.06
2023-03-29T13:13:41.762Z,24.75
2023-03-29T13:16:21.611Z,24.49
2023-03-29T13:18:48.572Z,24.63
2023-03-29T13:21:44.859Z,24.53
2023-03-29T13:24:31.292Z,24.75
2023-03-29T13:27:42.308Z,24.98
2023-03-29T13:30:20.115Z,24.60
2023-03-29T13:33:14.645Z,25.28
2023-03-29T13:35:59.950Z,25.35
2023-03-29T13:38:31.672Z,25.14
2023-03-29T13:41:05.554Z,25.42
2023-03-29T13:43:44.600Z,25.31
2023-03-29T13:46:43.491Z,24.38
2023-03-29T13:49:21.182Z,25.37
2023-03-29T13:52:02.856Z,25.60
2023-03-29T13:54:35.694Z,25.22
2023-03-29T13:57:08.926Z,24.97
2023-03-29T13:59:50.633Z,25.36
2023-03-29T14:02:50.822Z,25.03
2023-03-29T14:05:21.638Z,24.83
2023-03-29T14:07:52.801Z,24.37
2023-03-29T14:10:26.909Z,23.89
2023-03-29T14:12:55.932Z,24.31
2023-03-29T14:15:26.615Z,23.97
2023-03-29T14:18:00.809Z,24.36
2023-03-29T14:20:28.004Z,24.48
2023-03-29T14:22:54.807Z,25.09
2023-03-29T14:25:23.272Z,24.78
2023-03-29T14:27:49.997Z,24.94
2023-03-29T14:30:20.253Z,24.88
2023-03-29T14:32:48.897Z,24.82
2023-03-29T14:35:15.684Z,24.81
2023-03-29T14:37:42.911Z,24.84
2023-03-29T14:40:21.144Z,25.13
2023-03-29T14:42:48.804Z,25.39
2023-03-29T14:45:18.509Z,25.67
2023-03-29T14:47:47.237Z,25.26
2023-03-29T14:50:27.078Z,25.35
2023-03-29T14:52:54.520Z,26.03
2023-03-29T14:55:23.900Z,26.26
2023-03-29T14:57:54.275Z,25.93
2023-03-29T15:00:30.097Z,25.95
2023-03-29T15:03:02.400Z,26.45
2023-03-29T15:05:54.415Z,26.28
2023-03-29T15:08:32.322Z,25.82
2023-03-29T15:10:59.597Z,25.24
2023-03-29T15:13:28.336Z,25.93
2023-03-29T15:16:03.325Z,25.63
2023-03-29T15:18:41.611Z,25.42
2023-03-29T15:21:10.651Z,24.63
2023-03-29T15:23:41.673Z,24.72
2023-03-29T15:26:14.026Z,25.32
2023-03-29T15:28:55.832Z,24.45
2023-03-29T15:31:32.403Z,24.55
2023-03-29T15:34:06.311Z,24.65
2023-03-29T15:36:40.503Z,24.75
2023-03-29T15:39:14.272Z,24.75
2023-03-29T15:41:42.227Z,24.92
2023-03-29T15:44:10.539Z,25.02
2023-03-29T15:46:37.653Z,24.81
2023-03-29T15:49:05.233Z,24.81
2023-03-29T15:51:32.070Z,24.76
2023-03-29T15:53:58.895Z,24.33
2023-03-29T15:56:26.686Z,24.55
2023-03-29T15:58:53.259Z,24.83
2023-03-29T16:01:46.825Z,24.94
2023-03-29T16:04:17.402Z,25.23
2023-03-29T16:06:47.468Z,24.85
2023-03-29T16:09:15.240Z,25.02
2023-03-29T16:11:43.486Z,25.09
2023-03-29T16:14:24.796Z,25.10
2023-03-29T16:16:52.306Z,25.40
2023-03-29T16:19:19.463Z,25.02
2023-03-29T16:21:46.274Z,25.26
2023-03-29T16:24:21.896Z,24.96
2023-03-29T16:26:49.428Z,24.44
2023-03-29T16:29:17.333Z,24.15
2023-03-29T16:31:44.990Z,24.43
2023-03-29T16:34:13.837Z,24.83
2023-03-29T16:36:41.029Z,24.99
2023-03-29T16:39:07.959Z,25.22
2023-03-29T16:41:35.186Z,25.25
2023-03-29T16:44:01.941Z,25.20
2023-03-29T16:46:29.137Z,25.20
2023-03-29T16:48:57.913Z,24.93
2023-03-29T16:51:26.039Z,24.82
2023-03-29T16:53:52.709Z,24.84
2023-03-29T16:56:20.558Z,24.77
2023-03-29T16:58:47.509Z,24.70
2023-03-29T17:01:16.668Z,24.59
2023-03-29T17:03:44.083Z,24.36
2023-03-29T17:06:12.053Z,24.50
2023-03-29T17:08:39.629Z,24.29
2023-03-29T17:11:07.206Z,24.05
2023-03-29T17:13:34.076Z,23.85
2023-03-29T17:16:01.346Z,24.12
2023-03-29T17:18:28.409Z,23.76
2023-03-29T17:20:59.296Z,24.21
2023-03-29T17:23:26.268Z,24.38
2023-03-29T17:25:54.990Z,24.44
2023-03-29T17:28:24.088Z,24.45
2023-03-29T17:30:51.307Z,24.41
2023-03-29T17:33:22.803Z,24.32
2023-03-29T17:35:50.279Z,24.27
2023-03-29T17:38:18.703Z,23.97
2023-03-29T17:40:52.329Z,23.33
2023-03-29T17:43:18.837Z,23.54
2023-03-29T17:45:46.207Z,23.56
2023-03-29T17:48:13.284Z,23.76
2023-03-29T17:50:39.899Z,24.06
2023-03-29T17:53:07.257Z,23.93
2023-03-29T17:55:33.927Z,23.73
2023-03-29T17:58:00.716Z,24.12
2023-03-29T18:00:27.783Z,23.87
2023-03-29T18:02:54.607Z,23.60
2023-03-29T18:05:21.774Z,23.75
2023-03-29T18:07:48.366Z,23.36
2023-03-29T18:10:15.848Z,23.33
2023-03-29T18:12:42.487Z,23.22
2023-03-29T18:15:09.716Z,22.74
2023-03-29T18:17:37.189Z,22.93
2023-03-29T18:20:11.505Z,23.24
2023-03-29T18:22:39.738Z,23.73
2023-03-29T18:25:07.457Z,23.40
2023-03-29T18:27:36.432Z,23.38
2023-03-29T18:30:03.316Z,23.31
2023-03-29T18:32:30.100Z,23.62
2023-03-29T18:34:56.741Z,23.55
2023-03-29T18:37:23.593Z,23.71
2023-03-29T18:39:50.204Z,23.90
2023-03-29T18:42:17.328Z,23.69
2023-03-29T18:44:43.836Z,23.97
2023-03-29T18:47:10.627Z,23.48
2023-03-29T18:49:37.151Z,23.64
2023-03-29T18:52:04.874Z,23.17
2023-03-29T18:54:31.809Z,23.32
2023-03-29T18:56:59.354Z,23.19
2023-03-29T18:59:26.608Z,23.23
2023-03-29T19:01:53.284Z,23.15
2023-03-29T19:04:20.049Z,23.37
2023-03-29T19:06:47.390Z,23.43
2023-03-29T19:09:14.030Z,23.27
2023-03-29T19:11:40.917Z,23.45
2023-03-29T19:14:09.163Z,23.04
2023-03-29T19:16:36.093Z,23.31
2023-03-29T19:19:02.756Z,22.42
2023-03-29T19:21:31.837Z,23.03
2023-03-29T19:24:00.701Z,22.98
2023-03-29T19:26:33.324Z,23.11
2023-03-29T19:29:00.979Z,23.01
2023-03-29T19:31:27.828Z,22.65
2023-03-29T19:33:55.286Z,22.46
2023-03-29T19:36:22.206Z,22.56
2023-03-29T19:38:49.063Z,22.73
2023-03-29T19:41:15.890Z,23.07
2023-03-29T19:43:42.541Z,22.47
2023-03-29T19:46:11.778Z,22.38
2023-03-29T19:48:40.111Z,22.18
2023-03-29T19:51:07.917Z,22.48
2023-03-29T19:53:38.495Z,22.04
2023-03-29T19:56:07.604Z,22.54
2023-03-29T19:58:35.650Z,22.46
2023-03-29T20:03:29.707Z,22.87
2023-03-29T20:05:56.840Z,21.76
2023-03-29T20:08:24.756Z,22.19
2023-03-29T20:11:04.039Z,22.33
2023-03-29T20:16:16.339Z,22.17
2023-03-29T20:18:46.877Z,22.07
2023-03-29T20:21:16.266Z,22.24
2023-03-29T20:23:43.409Z,22.52
2023-03-29T20:26:10.539Z,22.36
2023-03-29T20:28:40.109Z,22.22
2023-03-29T20:31:10.797Z,22.27
2023-03-29T20:33:37.996Z,22.14
2023-03-29T20:36:05.757Z,22.50
2023-03-29T20:38:33.216Z,22.66
2023-03-29T20:41:00.118Z,22.21
2023-03-29T20:43:26.979Z,22.21
2023-03-29T20:45:54.489Z,22.50
2023-03-29T20:48:30.251Z,22.46
2023-03-29T20:50:57.802Z,22.41
2023-03-29T20:53:25.743Z,21.86
2023-03-29T20:55:52.620Z,21.79
2023-03-29T20:58:19.242Z,22.03
2023-03-29T21:00:48.350Z,21.83
2023-03-29T21:03:14.990Z,22.21
2023-03-29T21:05:41.863Z,22.16
2023-03-29T21:08:08.515Z,22.33
2023-03-29T21:10:37.129Z,22.23
2023-03-29T21:13:06.171Z,21.71
2023-03-29T21:15:41.930Z,21.81
2023-03-29T21:18:09.747Z,21.77
2023-03-29T21:20:37.634Z,21.68
2023-03-29T21:23:04.667Z,21.61
2023-03-29T21:25:31.541Z,21.83
2023-03-29T21:27:58.532Z,22.04
2023-03-29T21:30:25.084Z,21.34
2023-03-29T21:32:51.880Z,21.27
2023-03-29T21:35:18.668Z,21.47
2023-03-29T21:37:45.267Z,21.70
2023-03-29T21:40:12.972Z,21.98
2023-03-29T21:42:39.683Z,21.60
2023-03-29T21:45:08.440Z,21.78
2023-03-29T21:47:35.504Z,22.06
2023-03-29T21:50:04.259Z,21.47
2023-03-29T21:52:31.449Z,21.77
2023-03-29T21:54:58.156Z,21.55
2023-03-29T21:57:24.894Z,21.52
2023-03-29T21:59:51.586Z,21.46
2023-03-29T22:02:18.340Z,21.44
2023-03-29T22:04:45.233Z,21.68
2023-03-29T22:07:12.469Z,21.68
2023-03-29T22:09:42.520Z,21.69
2023-03-29T22:12:10.068Z,21.40
2023-03-29T22:14:37.198Z,20.87
2023-03-29T22:17:09.372Z,21.18
2023-03-29T22:19:39.845Z,21.12
2023-03-29T22:22:13.971Z,21.09
2023-03-29T22:24:41.907Z,20.69
2023-03-29T22:27:08.702Z,21.12
2023-03-29T22:29:37.471Z,21.23
2023-03-29T22:32:04.935Z,21.27
2023-03-29T22:34:32.102Z,20.80
2023-03-29T22:36:58.629Z,20.79
2023-03-29T22:39:25.289Z,20.82
2023-03-29T22:41:51.831Z,20.85
2023-03-29T22:44:18.418Z,20.74
2023-03-29T22:46:45.095Z,21.03
2023-03-29T22:49:11.937Z,21.20
2023-03-29T22:51:38.977Z,21.24
2023-03-29T22:54:05.963Z,21.21
2023-03-29T22:56:32.570Z,21.10
2023-03-29T22:58:59.288Z,21.23
2023-03-29T23:01:26.005Z,20.85
2023-03-29T23:03:52.809Z,21.04
2023-03-29T23:06:19.557Z,20.69
2023-03-29T23:08:46.161Z,20.40
2023-03-29T23:11:12.995Z,20.97
2023-03-29T23:13:40.109Z,20.97
2023-03-29T23:16:07.417Z,20.91
2023-03-29T23:18:37.953Z,21.15
2023-03-29T23:21:07.821Z,21.43
2023-03-29T23:23:36.996Z,21.15
2023-03-29T23:26:04.570Z,21.46
2023-03-29T23:28:34.882Z,21.34
2023-03-29T23:31:09.199Z,21.33
2023-03-29T23:33:40.390Z,21.91
2023-03-29T23:36:13.267Z,21.93
2023-03-29T23:38:40.699Z,22.23
2023-03-29T23:41:10.871Z,21.76
2023-03-29T23:43:43.901Z,21.75
2023-03-29T23:46:14.257Z,21.80
2023-03-29T23:48:48.877Z,21.61
2023-03-29T23:51:18.892Z,21.58
2023-03-29T23:53:46.525Z,21.72
2023-03-29T23:56:14.530Z,21.48
2023-03-29T23:58:41.188Z,21.73
